Time;durP1;ratioP1;P1;durP2;ratioP2;P2;SDS_P1;SDS_P2;PMS_P1;PMS_P2;Temp;Humidity;BMP_temperature;BMP_pressure;BME280_temperature;BME280_humidity;BME280_pressure;Samples;Min_cycle;Max_cycle;Signal;HPM_P1;HPM_P2
2021/04/08 00:00:38;;;;;;;12.02;2.58;;;2.40;91.20;;;;;;5135594;27;20045;-69
2021/04/08 00:03:04;;;;;;;7.20;2.33;;;2.40;91.40;;;;;;5135369;27;20039;-69
2021/04/08 00:05:30;;;;;;;7.03;2.10;;;2.40;91.70;;;;;;5135147;27;20043;-69
2021/04/08 00:07:55;;;;;;;7.95;2.17;;;2.40;91.30;;;;;;5135267;27;20073;-69
2021/04/08 00:10:21;;;;;;;9.35;1.42;;;2.50;91.10;;;;;;5135281;27;20035;-69
2021/04/08 00:12:47;;;;;;;5.82;1.65;;;2.50;90.70;;;;;;5135293;27;20172;-69
2021/04/08 00:15:14;;;;;;;5.22;1.40;;;2.60;90.80;;;;;;5134978;27;20491;-69
2021/04/08 00:17:40;;;;;;;10.20;1.80;;;2.70;90.50;;;;;;5134443;27;20031;-69
2021/04/08 00:20:09;;;;;;;9.13;1.85;;;2.70;90.30;;;;;;5135148;27;20046;-69
2021/04/08 00:22:34;;;;;;;6.53;1.83;;;2.80;90.30;;;;;;5135069;27;20394;-69
2021/04/08 00:25:00;;;;;;;5.05;1.50;;;2.90;90.30;;;;;;5134806;27;20035;-69
2021/04/08 00:27:25;;;;;;;12.18;2.30;;;3.00;90.20;;;;;;5134967;27;20510;-68
2021/04/08 00:29:51;;;;;;;10.02;2.10;;;3.10;91.00;;;;;;5134840;27;20440;-69
2021/04/08 00:32:17;;;;;;;6.90;1.95;;;3.10;91.50;;;;;;5135228;27;20047;-69
2021/04/08 00:34:43;;;;;;;15.57;2.25;;;3.00;91.80;;;;;;5134618;27;20135;-69
2021/04/08 00:37:08;;;;;;;14.63;2.03;;;2.90;92.00;;;;;;5135541;27;20046;-69
2021/04/08 00:39:35;;;;;;;10.68;2.60;;;2.80;92.20;;;;;;5135296;27;20122;-69
2021/04/08 00:42:01;;;;;;;14.00;3.35;;;2.80;92.40;;;;;;5134796;27;20071;-69
2021/04/08 00:44:27;;;;;;;10.13;2.10;;;2.70;92.50;;;;;;5134508;27;20510;-69
2021/04/08 00:46:52;;;;;;;10.63;2.30;;;2.70;92.80;;;;;;5134628;27;20087;-69
2021/04/08 00:49:18;;;;;;;12.43;1.98;;;2.60;92.90;;;;;;5134636;27;20387;-69
2021/04/08 00:51:44;;;;;;;14.00;2.33;;;2.60;93.00;;;;;;5134763;27;20074;-69
2021/04/08 00:54:10;;;;;;;10.40;2.42;;;2.60;93.00;;;;;;5134371;27;20467;-69
2021/04/08 00:56:36;;;;;;;9.60;2.13;;;2.50;93.00;;;;;;5134298;27;20491;-69
2021/04/08 00:59:02;;;;;;;13.25;2.03;;;2.40;92.90;;;;;;5134931;27;20043;-69
2021/04/08 01:01:29;;;;;;;14.98;2.17;;;2.40;92.90;;;;;;5135095;27;20046;-69
2021/04/08 01:03:55;;;;;;;8.80;1.77;;;2.40;92.90;;;;;;5134897;27;20045;-69
2021/04/08 01:06:22;;;;;;;9.15;2.13;;;2.30;92.90;;;;;;5132927;27;20043;-69
2021/04/08 01:08:48;;;;;;;11.18;2.22;;;2.30;93.00;;;;;;5134363;27;20039;-69
2021/04/08 01:11:13;;;;;;;12.32;2.05;;;2.20;92.90;;;;;;5133381;27;20103;-69
2021/04/08 01:13:40;;;;;;;14.63;2.47;;;2.20;93.10;;;;;;5134855;27;20039;-69
2021/04/08 01:16:12;;;;;;;9.55;1.58;;;2.20;93.20;;;;;;5133961;27;20031;-69
2021/04/08 01:18:59;;;;;;;10.30;1.83;;;2.10;93.20;;;;;;5134250;27;20103;-69
2021/04/08 01:21:51;;;;;;;17.27;2.85;;;2.10;93.30;;;;;;5134567;27;20031;-69
2021/04/08 01:24:31;;;;;;;12.00;2.55;;;2.00;93.40;;;;;;5134463;27;20039;-70
2021/04/08 01:27:22;;;;;;;10.25;2.50;;;2.00;93.60;;;;;;5134628;27;20074;-69
2021/04/08 01:30:15;;;;;;;13.93;2.90;;;2.00;93.50;;;;;;5134281;27;20059;-69
2021/04/08 01:32:49;;;;;;;15.03;2.80;;;2.00;93.90;;;;;;5134396;27;20035;-69
2021/04/08 01:35:19;;;;;;;10.70;2.60;;;2.10;94.20;;;;;;5133846;27;20273;-69
2021/04/08 01:38:10;;;;;;;13.48;2.58;;;2.20;94.20;;;;;;5134023;27;20031;-69
2021/04/08 01:40:38;;;;;;;9.32;2.13;;;2.30;94.00;;;;;;5134016;27;20035;-69
2021/04/08 01:43:06;;;;;;;10.48;2.13;;;2.30;93.70;;;;;;5134074;27;20177;-69
2021/04/08 01:45:33;;;;;;;10.73;2.47;;;2.30;93.70;;;;;;5132826;28;20027;-69
2021/04/08 01:48:01;;;;;;;10.95;2.33;;;2.40;93.70;;;;;;5134130;27;20398;-69
2021/04/08 01:50:28;;;;;;;13.48;2.22;;;2.40;93.80;;;;;;5134425;27;20058;-69
2021/04/08 01:52:56;;;;;;;14.23;3.08;;;2.40;93.80;;;;;;5134688;27;20039;-69
2021/04/08 01:55:24;;;;;;;13.60;2.13;;;2.40;93.90;;;;;;5133956;27;20049;-69
2021/04/08 01:57:51;;;;;;;13.75;1.98;;;2.40;93.90;;;;;;5133983;27;20379;-69
2021/04/08 02:00:20;;;;;;;11.85;2.55;;;2.40;94.00;;;;;;5134160;27;20039;-69
2021/04/08 02:02:49;;;;;;;12.23;1.85;;;2.40;94.00;;;;;;5134132;27;20066;-69
2021/04/08 02:05:17;;;;;;;8.43;1.77;;;2.40;94.00;;;;;;5133773;27;20113;-69
2021/04/08 02:07:46;;;;;;;10.88;2.03;;;2.40;94.10;;;;;;5136574;27;20046;-69
2021/04/08 02:10:16;;;;;;;10.32;1.73;;;2.40;94.10;;;;;;5137910;27;20050;-69
2021/04/08 02:12:46;;;;;;;19.40;3.55;;;2.50;94.10;;;;;;5137846;27;20039;-69
2021/04/08 02:15:16;;;;;;;9.60;2.47;;;2.40;94.20;;;;;;5137497;27;20046;-69
2021/04/08 02:17:44;;;;;;;12.55;2.15;;;2.30;94.30;;;;;;5137745;27;20042;-69
2021/04/08 02:20:15;;;;;;;13.90;2.40;;;2.30;94.20;;;;;;5138048;27;20057;-69
2021/04/08 02:22:48;;;;;;;11.65;2.65;;;2.30;94.30;;;;;;5137995;27;20053;-69
2021/04/08 02:25:15;;;;;;;9.05;3.05;;;2.30;94.20;;;;;;5137318;27;20042;-69
2021/04/08 02:27:43;;;;;;;8.75;2.30;;;2.30;94.20;;;;;;5137432;27;20108;-69
2021/04/08 02:30:13;;;;;;;15.40;2.83;;;2.20;94.40;;;;;;5137261;27;20031;-69
2021/04/08 02:32:39;;;;;;;12.05;2.08;;;2.30;94.30;;;;;;5137780;27;20123;-69
2021/04/08 02:35:16;;;;;;;8.35;2.33;;;2.20;94.30;;;;;;5136886;27;20067;-69
2021/04/08 02:37:44;;;;;;;15.40;2.42;;;2.30;94.30;;;;;;5137159;27;20437;-69
2021/04/08 02:40:13;;;;;;;9.75;3.72;;;2.20;94.30;;;;;;5137069;27;20038;-69
2021/04/08 02:42:39;;;;;;;8.85;1.50;;;2.20;94.20;;;;;;5137169;27;20031;-69
2021/04/08 02:45:07;;;;;;;10.88;1.50;;;2.20;94.10;;;;;;5136746;27;20032;-69
2021/04/08 02:47:33;;;;;;;6.43;1.70;;;2.10;94.10;;;;;;5137028;27;20035;-69
2021/04/08 02:50:00;;;;;;;9.32;1.92;;;2.10;94.10;;;;;;5136967;27;20046;-69
2021/04/08 02:52:29;;;;;;;6.00;1.25;;;2.10;94.10;;;;;;5136922;27;20122;-69
2021/04/08 02:55:12;;;;;;;11.20;1.48;;;2.10;94.00;;;;;;5136684;27;20479;-69
2021/04/08 02:57:52;;;;;;;5.78;1.38;;;2.10;94.40;;;;;;5136971;27;20059;-69
2021/04/08 03:00:18;;;;;;;8.13;1.13;;;2.10;93.90;;;;;;5137330;27;20027;-69
2021/04/08 03:02:48;;;;;;;6.45;1.20;;;2.00;93.90;;;;;;5136741;27;20039;-69
2021/04/08 03:05:14;;;;;;;10.32;2.05;;;2.00;93.90;;;;;;5136633;27;20092;-69
2021/04/08 03:07:43;;;;;;;6.07;1.45;;;2.00;93.90;;;;;;5136632;27;20058;-69
2021/04/08 03:10:12;;;;;;;6.70;1.27;;;2.00;93.90;;;;;;5136961;27;20122;-69
2021/04/08 03:12:45;;;;;;;5.75;1.00;;;2.00;94.00;;;;;;5136614;27;20562;-69
2021/04/08 03:15:13;;;;;;;10.77;1.98;;;2.00;94.10;;;;;;5136493;27;20399;-69
2021/04/08 03:17:41;;;;;;;2.85;1.00;;;2.10;94.00;;;;;;5135821;27;20039;-69
2021/04/08 03:20:10;;;;;;;6.00;1.10;;;2.20;93.60;;;;;;5136428;27;20103;-69
2021/04/08 03:22:38;;;;;;;4.15;1.23;;;2.20;92.60;;;;;;5136348;27;20043;-68
2021/04/08 03:25:06;;;;;;;10.55;1.40;;;2.20;93.20;;;;;;5135940;27;20088;-69
2021/04/08 03:27:32;;;;;;;5.97;1.40;;;2.20;93.50;;;;;;5136740;27;20448;-69
2021/04/08 03:29:58;;;;;;;4.68;1.52;;;2.20;93.60;;;;;;5136080;27;20035;-69
2021/04/08 03:32:25;;;;;;;12.52;3.67;;;2.20;93.80;;;;;;5136285;27;20043;-68
2021/04/08 03:34:54;;;;;;;6.28;1.52;;;2.20;93.90;;;;;;5135821;27;20031;-69
2021/04/08 03:37:24;;;;;;;9.65;1.60;;;2.20;93.90;;;;;;5135964;27;20039;-68
2021/04/08 03:39:50;;;;;;;8.48;1.60;;;2.20;93.90;;;;;;5136034;27;20039;-69
2021/04/08 03:42:16;;;;;;;9.45;1.95;;;2.20;94.10;;;;;;5135954;27;20035;-69
2021/04/08 03:44:42;;;;;;;8.98;2.08;;;2.30;93.80;;;;;;5135629;27;20032;-68
2021/04/08 03:47:09;;;;;;;8.65;1.88;;;2.20;93.80;;;;;;5135818;27;20521;-68
2021/04/08 03:49:35;;;;;;;6.63;1.60;;;2.20;94.00;;;;;;5136084;27;20043;-68
2021/04/08 03:52:06;;;;;;;7.90;1.38;;;2.20;94.10;;;;;;5135649;27;20096;-68
2021/04/08 03:54:34;;;;;;;15.60;3.35;;;2.20;94.10;;;;;;5135243;27;20104;-69
2021/04/08 03:57:02;;;;;;;9.07;1.80;;;2.30;94.10;;;;;;5135920;27;20383;-68
2021/04/08 03:59:29;;;;;;;7.97;1.55;;;2.20;94.30;;;;;;5135922;27;20047;-68
2021/04/08 04:01:55;;;;;;;10.02;2.40;;;2.30;94.30;;;;;;5135459;27;20471;-68
2021/04/08 04:04:23;;;;;;;9.82;2.28;;;2.30;94.30;;;;;;5135547;27;20497;-69
2021/04/08 04:06:52;;;;;;;11.60;1.52;;;2.30;94.40;;;;;;5135158;27;20037;-69
2021/04/08 04:09:18;;;;;;;10.40;2.15;;;2.30;94.30;;;;;;5135387;27;20069;-68
2021/04/08 04:11:47;;;;;;;12.32;1.88;;;2.30;94.40;;;;;;5135554;27;20455;-69
2021/04/08 04:14:16;;;;;;;9.13;1.50;;;2.30;94.20;;;;;;5134320;27;20069;-69
2021/04/08 04:16:46;;;;;;;6.93;1.50;;;2.30;94.10;;;;;;5135433;27;20039;-69
2021/04/08 04:19:13;;;;;;;8.30;1.70;;;2.30;94.20;;;;;;5135254;27;20411;-69
2021/04/08 04:21:39;;;;;;;16.05;3.53;;;2.40;94.10;;;;;;5134980;27;20039;-69
2021/04/08 04:24:06;;;;;;;15.38;1.90;;;2.40;94.20;;;;;;5135418;27;20031;-69
2021/04/08 04:26:33;;;;;;;7.00;1.35;;;2.40;94.10;;;;;;5134892;27;20038;-69
2021/04/08 04:28:59;;;;;;;7.68;1.55;;;2.30;94.10;;;;;;5134142;27;20043;-69
2021/04/08 04:31:25;;;;;;;13.68;2.95;;;2.30;94.10;;;;;;5134988;27;20039;-69
2021/04/08 04:33:51;;;;;;;6.07;1.70;;;2.30;94.10;;;;;;5133897;27;20035;-69
2021/04/08 04:36:18;;;;;;;10.48;1.58;;;2.30;94.20;;;;;;5134585;27;20100;-69
2021/04/08 04:38:44;;;;;;;9.95;1.67;;;2.40;94.40;;;;;;5135028;27;20047;-69
2021/04/08 04:41:10;;;;;;;5.80;1.60;;;2.30;94.40;;;;;;5135243;27;20395;-69
2021/04/08 04:43:35;;;;;;;14.02;3.80;;;2.40;94.30;;;;;;5135207;27;20039;-69
2021/04/08 04:46:01;;;;;;;13.18;2.10;;;2.40;94.10;;;;;;5134671;27;20038;-69
2021/04/08 04:48:27;;;;;;;8.02;1.58;;;2.40;93.90;;;;;;5134516;27;20125;-69
2021/04/08 04:50:53;;;;;;;6.57;1.70;;;2.50;93.40;;;;;;5134697;27;20401;-69
2021/04/08 04:53:19;;;;;;;11.68;3.03;;;2.40;93.30;;;;;;5134568;27;20435;-69
2021/04/08 04:55:45;;;;;;;16.30;2.47;;;2.40;93.30;;;;;;5134031;27;20031;-69
2021/04/08 04:58:11;;;;;;;7.80;2.03;;;2.40;93.50;;;;;;5134913;27;20126;-69
2021/04/08 05:00:38;;;;;;;9.52;1.73;;;2.40;93.60;;;;;;5134486;27;20118;-69
2021/04/08 05:03:04;;;;;;;6.93;2.05;;;2.40;93.80;;;;;;5134474;27;20134;-68
2021/04/08 05:05:30;;;;;;;9.13;1.88;;;2.40;93.80;;;;;;5134038;27;20047;-68
2021/04/08 05:07:56;;;;;;;11.55;2.42;;;2.40;93.90;;;;;;5134360;27;20035;-68
2021/04/08 05:10:21;;;;;;;8.55;1.92;;;2.40;93.90;;;;;;5134645;27;20062;-68
2021/04/08 05:12:47;;;;;;;6.97;1.40;;;2.40;93.90;;;;;;5134259;27;20045;-68
2021/04/08 05:15:13;;;;;;;8.98;1.38;;;2.50;93.90;;;;;;5133925;27;20039;-68
2021/04/08 05:17:38;;;;;;;10.43;1.77;;;2.50;94.00;;;;;;5134160;27;20039;-68
2021/04/08 05:20:06;;;;;;;12.32;1.40;;;2.50;94.00;;;;;;5134177;27;20070;-68
2021/04/08 05:22:31;;;;;;;9.82;2.83;;;2.50;94.10;;;;;;5133329;27;20051;-68
2021/04/08 05:24:57;;;;;;;7.95;1.67;;;2.50;94.20;;;;;;5133950;27;20411;-68
2021/04/08 05:27:23;;;;;;;7.72;1.52;;;2.60;93.90;;;;;;5134491;27;20459;-68
2021/04/08 05:29:48;;;;;;;9.55;1.88;;;2.60;93.70;;;;;;5134449;27;20043;-68
2021/04/08 05:32:14;;;;;;;6.20;1.48;;;2.60;93.50;;;;;;5134517;27;20043;-68
2021/04/08 05:34:40;;;;;;;10.13;2.95;;;2.60;93.40;;;;;;5133943;27;20038;-68
2021/04/08 05:37:05;;;;;;;7.60;1.75;;;2.60;93.30;;;;;;5134422;27;20131;-68
2021/04/08 05:39:31;;;;;;;8.50;1.73;;;2.60;93.40;;;;;;5134040;27;20497;-68
2021/04/08 05:41:57;;;;;;;7.80;1.73;;;2.60;92.90;;;;;;5137915;27;20159;-69
2021/04/08 05:44:23;;;;;;;6.13;1.80;;;2.70;93.00;;;;;;5137800;27;20036;-70
2021/04/08 05:46:48;;;;;;;9.25;1.45;;;2.70;93.10;;;;;;5138250;27;20035;-68
2021/04/08 05:49:14;;;;;;;10.82;2.60;;;2.70;92.90;;;;;;5138174;27;20039;-69
2021/04/08 05:51:40;;;;;;;6.05;1.58;;;2.70;93.30;;;;;;5138359;27;20069;-69
2021/04/08 05:54:07;;;;;;;13.32;2.30;;;2.70;93.00;;;;;;5138301;27;20368;-69
2021/04/08 05:56:33;;;;;;;4.68;1.60;;;2.70;93.10;;;;;;5137787;27;20398;-69
2021/04/08 05:59:00;;;;;;;11.48;2.15;;;2.70;93.20;;;;;;5137978;27;20039;-69
2021/04/08 06:01:26;;;;;;;11.88;2.33;;;2.80;93.30;;;;;;5138231;27;20063;-69
2021/04/08 06:03:53;;;;;;;6.55;1.90;;;2.80;93.60;;;;;;5138115;27;20062;-69
2021/04/08 06:06:19;;;;;;;11.23;2.03;;;2.80;93.50;;;;;;5137443;27;20046;-69
2021/04/08 06:08:45;;;;;;;6.07;1.60;;;2.80;93.50;;;;;;5137966;27;20077;-69
2021/04/08 06:11:10;;;;;;;4.45;1.40;;;2.90;93.60;;;;;;5137867;27;20063;-69
2021/04/08 06:13:36;;;;;;;7.93;1.98;;;2.90;93.40;;;;;;5138210;27;20070;-69
2021/04/08 06:16:02;;;;;;;5.38;1.65;;;3.00;93.50;;;;;;5137738;27;20039;-69
2021/04/08 06:18:28;;;;;;;11.27;1.90;;;3.00;93.80;;;;;;5137882;27;20141;-69
2021/04/08 06:20:54;;;;;;;10.43;1.80;;;3.10;93.70;;;;;;5137744;27;20062;-69
2021/04/08 06:23:19;;;;;;;13.32;3.13;;;3.10;93.80;;;;;;5137528;27;20039;-69
2021/04/08 06:25:45;;;;;;;8.48;2.40;;;3.10;93.60;;;;;;5137396;27;20114;-69
2021/04/08 06:28:11;;;;;;;11.52;2.13;;;3.20;93.70;;;;;;5137455;27;20039;-69
2021/04/08 06:30:37;;;;;;;8.85;1.70;;;3.20;93.60;;;;;;5137211;27;20153;-69
2021/04/08 06:33:04;;;;;;;10.02;1.70;;;3.30;93.60;;;;;;5137381;27;20035;-69
2021/04/08 06:35:30;;;;;;;6.53;1.73;;;3.30;93.20;;;;;;5136773;27;20066;-69
2021/04/08 06:37:55;;;;;;;11.32;2.63;;;3.30;93.00;;;;;;5137221;27;20098;-69
2021/04/08 06:40:22;;;;;;;12.27;3.45;;;3.30;92.80;;;;;;5137368;27;20103;-69
2021/04/08 06:42:52;;;;;;;8.70;2.47;;;3.30;93.10;;;;;;5137109;27;20039;-69
2021/04/08 06:45:20;;;;;;;6.60;1.65;;;3.30;92.80;;;;;;5136562;27;20035;-69
2021/04/08 06:48:13;;;;;;;8.48;1.67;;;3.30;93.10;;;;;;5135723;27;20039;-68
2021/04/08 06:50:41;;;;;;;9.55;2.00;;;3.30;93.00;;;;;;5137379;27;20047;-69
2021/04/08 06:53:08;;;;;;;3.88;1.90;;;3.30;93.00;;;;;;5136058;27;20160;-69
2021/04/08 06:55:35;;;;;;;6.85;1.60;;;3.30;92.60;;;;;;5136710;27;20398;-69
2021/04/08 06:58:03;;;;;;;8.07;1.70;;;3.40;92.80;;;;;;5136835;27;20536;-69
2021/04/08 07:00:30;;;;;;;6.28;1.95;;;3.40;92.70;;;;;;5137025;27;20047;-69
2021/04/08 07:02:58;;;;;;;6.47;1.92;;;3.50;92.40;;;;;;5136742;27;20046;-70
2021/04/08 07:05:24;;;;;;;7.30;1.65;;;3.50;92.60;;;;;;5136345;27;20031;-69
2021/04/08 07:07:52;;;;;;;6.32;1.73;;;3.50;92.60;;;;;;5136306;27;20440;-70
2021/04/08 07:10:21;;;;;;;9.05;2.17;;;3.60;92.80;;;;;;5135561;27;20494;-70
2021/04/08 07:12:46;;;;;;;8.82;1.63;;;3.70;92.90;;;;;;5136404;27;20043;-70
2021/04/08 07:15:13;;;;;;;11.05;1.83;;;3.70;92.70;;;;;;5136227;27;20497;-70
2021/04/08 07:17:40;;;;;;;9.68;3.60;;;3.80;92.50;;;;;;5136761;27;20043;-71
2021/04/08 07:20:07;;;;;;;4.43;1.55;;;3.80;92.40;;;;;;5136572;27;20502;-71
2021/04/08 07:22:32;;;;;;;8.27;1.88;;;3.80;92.70;;;;;;5136284;27;20483;-71
2021/04/08 07:24:58;;;;;;;4.07;1.30;;;3.90;92.40;;;;;;5135982;27;20035;-71
2021/04/08 07:27:25;;;;;;;9.88;2.45;;;4.00;92.60;;;;;;5136246;27;20037;-71
2021/04/08 07:30:01;;;;;;;6.80;2.30;;;4.10;92.10;;;;;;5136028;27;20116;-71
2021/04/08 07:32:31;;;;;;;4.97;1.40;;;4.20;92.20;;;;;;5136227;27;20051;-71
2021/04/08 07:35:17;;;;;;;8.20;1.35;;;4.20;92.10;;;;;;5136294;27;20043;-71
2021/04/08 07:37:54;;;;;;;13.25;1.70;;;4.30;92.10;;;;;;5136141;27;20039;-70
2021/04/08 07:40:24;;;;;;;8.30;2.05;;;4.40;92.30;;;;;;5136347;27;20398;-71
2021/04/08 07:42:50;;;;;;;5.53;1.77;;;4.50;91.90;;;;;;5134607;27;20046;-68
2021/04/08 07:45:33;;;;;;;6.28;1.70;;;4.60;91.70;;;;;;5135783;27;20035;-68
2021/04/08 07:48:01;;;;;;;13.30;3.33;;;4.70;91.40;;;;;;5135982;27;20139;-69
2021/04/08 07:50:28;;;;;;;5.82;1.80;;;4.80;91.00;;;;;;5135900;27;20078;-68
2021/04/08 07:52:54;;;;;;;10.63;1.80;;;4.90;91.10;;;;;;5135792;27;20546;-68
2021/04/08 07:55:21;;;;;;;9.13;2.00;;;5.00;90.80;;;;;;5135428;27;20039;-68
2021/04/08 07:57:56;;;;;;;6.25;1.45;;;5.10;90.90;;;;;;5135585;27;20042;-68
2021/04/08 08:00:35;;;;;;;5.65;2.90;;;5.10;90.80;;;;;;5135639;27;20043;-68
2021/04/08 08:03:23;;;;;;;4.07;1.35;;;5.20;90.60;;;;;;5135614;27;20062;-68
2021/04/08 08:05:50;;;;;;;7.05;1.48;;;5.30;90.70;;;;;;5134782;27;20479;-68
2021/04/08 08:08:25;;;;;;;6.53;1.98;;;5.30;90.30;;;;;;5135477;27;20039;-68
2021/04/08 08:11:09;;;;;;;7.55;1.27;;;5.20;90.00;;;;;;5135504;27;20118;-68
2021/04/08 08:13:36;;;;;;;5.90;1.45;;;5.30;90.10;;;;;;5136022;27;20043;-68
2021/04/08 08:16:03;;;;;;;9.05;1.67;;;5.30;90.30;;;;;;5135160;27;20031;-71
2021/04/08 08:18:40;;;;;;;12.60;2.72;;;5.60;90.40;;;;;;5134497;27;20051;-68
2021/04/08 08:21:12;;;;;;;7.03;1.45;;;5.50;89.80;;;;;;5135100;27;20110;-68
2021/04/08 08:23:50;;;;;;;3.70;1.35;;;5.60;90.00;;;;;;5135503;27;20110;-68
2021/04/08 08:26:39;;;;;;;4.13;1.55;;;5.60;90.30;;;;;;5134813;27;20122;-68
2021/04/08 08:29:13;;;;;;;10.52;1.98;;;5.70;90.10;;;;;;5134525;27;20039;-68
2021/04/08 08:31:53;;;;;;;4.40;1.45;;;6.20;90.30;;;;;;5134901;27;20039;-68
2021/04/08 08:34:22;;;;;;;5.43;1.42;;;6.50;89.10;;;;;;5135180;27;20035;-69
2021/04/08 08:36:56;;;;;;;8.35;1.92;;;6.70;89.30;;;;;;5134731;27;20039;-68
2021/04/08 08:39:30;;;;;;;10.13;2.75;;;6.80;87.90;;;;;;5135047;27;20043;-68
2021/04/08 08:41:58;;;;;;;9.30;2.13;;;6.90;86.20;;;;;;5134683;27;20479;-68
2021/04/08 08:44:24;;;;;;;8.68;1.98;;;7.00;86.50;;;;;;5134335;27;20035;-69
2021/04/08 08:46:59;;;;;;;7.20;2.78;;;7.10;86.90;;;;;;5133425;27;20042;-69
2021/04/08 08:49:32;;;;;;;5.78;1.70;;;7.10;86.40;;;;;;5134674;27;20063;-69
2021/04/08 08:51:59;;;;;;;;;;;7.10;83.10;;;;;;5135034;27;20067;-68
2021/04/08 08:54:27;;;;;;;7.88;1.85;;;7.20;82.20;;;;;;5134443;27;20364;-69
2021/04/08 08:56:55;;;;;;;9.57;2.58;;;7.30;81.80;;;;;;5133369;27;20054;-68
2021/04/08 08:59:25;;;;;;;6.60;1.83;;;7.40;83.30;;;;;;5134479;27;20039;-68
2021/04/08 09:01:52;;;;;;;4.47;1.15;;;7.40;82.40;;;;;;5133388;27;20048;-67
2021/04/08 09:04:18;;;;;;;4.75;1.50;;;7.30;80.90;;;;;;5134408;27;20491;-68
2021/04/08 09:06:45;;;;;;;5.47;1.48;;;7.30;82.70;;;;;;5133878;27;20050;-67
2021/04/08 09:09:14;;;;;;;4.00;1.50;;;7.20;81.40;;;;;;5134203;27;20035;-69
2021/04/08 09:11:42;;;;;;;5.05;1.42;;;7.20;81.00;;;;;;5134878;27;20055;-68
2021/04/08 09:14:13;;;;;;;7.05;1.40;;;7.20;82.50;;;;;;5134718;27;20118;-68
2021/04/08 09:16:47;;;;;;;8.85;2.15;;;7.10;80.90;;;;;;5133455;27;20031;-69
2021/04/08 09:19:16;;;;;;;8.52;2.70;;;7.10;82.10;;;;;;5134437;27;20043;-69
2021/04/08 09:21:51;;;;;;;11.32;1.63;;;7.10;82.20;;;;;;5134698;27;20054;-69
2021/04/08 09:24:18;;;;;;;6.40;2.70;;;7.10;81.20;;;;;;5133361;28;20111;-70
2021/04/08 09:26:48;;;;;;;9.02;2.22;;;7.10;81.70;;;;;;5133916;27;20035;-69
2021/04/08 09:29:43;;;;;;;8.55;1.45;;;7.00;83.50;;;;;;5134594;27;20043;-69
2021/04/08 09:32:30;;;;;;;4.72;1.27;;;7.10;84.30;;;;;;5134094;27;20104;-69
2021/04/08 09:35:08;;;;;;;7.47;2.17;;;7.10;84.90;;;;;;5133972;27;20048;-69
2021/04/08 09:37:46;;;;;;;9.00;2.38;;;7.20;84.50;;;;;;5133048;28;20398;-68
2021/04/08 09:40:26;;;;;;;5.72;1.55;;;7.30;83.30;;;;;;5134480;27;20039;-70
2021/04/08 09:43:00;;;;;;;7.07;2.58;;;7.40;83.90;;;;;;5134253;27;20064;-67
2021/04/08 09:45:26;;;;;;;9.13;2.13;;;7.50;84.20;;;;;;5133689;27;20035;-68
2021/04/08 09:48:11;;;;;;;7.95;2.13;;;7.60;84.70;;;;;;5133982;27;20447;-69
2021/04/08 09:50:57;;;;;;;11.35;2.03;;;7.80;82.50;;;;;;5132833;27;20075;-68
2021/04/08 09:53:23;;;;;;;4.28;1.90;;;7.90;83.70;;;;;;5133986;27;20403;-67
2021/04/08 09:55:57;;;;;;;7.78;2.30;;;8.00;82.50;;;;;;5133432;27;20054;-68
2021/04/08 09:58:24;;;;;;;13.90;5.55;;;8.10;79.90;;;;;;5133976;27;20043;-67
2021/04/08 10:00:52;;;;;;;6.40;2.25;;;8.00;79.70;;;;;;5133750;27;20505;-67
2021/04/08 10:03:26;;;;;;;7.63;2.30;;;8.00;80.40;;;;;;5133713;27;20046;-68
2021/04/08 10:05:53;;;;;;;8.02;3.08;;;8.10;78.70;;;;;;5133452;27;20468;-68
2021/04/08 10:08:24;;;;;;;5.38;2.63;;;8.10;79.70;;;;;;5133849;27;20100;-68
2021/04/08 10:10:51;;;;;;;7.13;2.30;;;8.10;79.30;;;;;;5133697;27;20061;-68
2021/04/08 10:13:22;;;;;;;5.00;2.25;;;8.20;80.00;;;;;;5133802;27;20039;-68
2021/04/08 10:15:50;;;;;;;7.60;2.20;;;8.20;78.10;;;;;;5133675;27;20031;-68
2021/04/08 10:18:18;;;;;;;5.47;2.67;;;8.20;77.70;;;;;;5133649;27;20051;-68
2021/04/08 10:21:14;;;;;;;11.13;2.20;;;8.00;77.40;;;;;;5132922;27;20043;-68
2021/04/08 10:24:10;;;;;;;6.93;2.25;;;7.80;77.70;;;;;;5133110;27;20154;-68
2021/04/08 10:26:56;;;;;;;9.60;2.35;;;7.60;78.20;;;;;;5133146;27;20375;-68
2021/04/08 10:29:43;;;;;;;7.53;2.17;;;7.30;77.80;;;;;;5136570;27;20383;-68
2021/04/08 10:32:08;;;;;;;6.20;2.45;;;7.20;77.40;;;;;;5137229;27;20483;-68
2021/04/08 10:34:37;;;;;;;7.97;2.22;;;7.10;75.40;;;;;;5136739;27;20031;-68
2021/04/08 10:37:04;;;;;;;5.65;2.78;;;7.10;76.10;;;;;;5137216;27;20035;-68
2021/04/08 10:39:37;;;;;;;11.60;2.58;;;7.00;76.00;;;;;;5137154;27;20044;-68
2021/04/08 10:42:09;;;;;;;;;;;7.00;75.50;;;;;;5136429;27;20042;-68
2021/04/08 10:44:40;;;;;;;4.90;2.50;;;7.00;77.30;;;;;;5137007;27;20022;-68
2021/04/08 10:47:23;;;;;;;3.90;2.70;;;7.00;77.90;;;;;;5137217;27;20027;-68
2021/04/08 10:50:07;;;;;;;7.93;3.38;;;7.10;74.30;;;;;;5137249;27;20039;-68
2021/04/08 10:52:37;;;;;;;;;;;7.20;76.30;;;;;;5137280;27;20041;-68
2021/04/08 10:55:06;;;;;;;7.85;3.58;;;7.30;75.50;;;;;;5136843;27;19915;-68
2021/04/08 10:57:32;;;;;;;8.80;3.78;;;7.40;76.10;;;;;;5136635;27;20077;-68
2021/04/08 10:59:59;;;;;;;5.15;3.60;;;7.60;74.30;;;;;;5136882;27;20035;-68
2021/04/08 11:02:32;;;;;;;8.52;3.67;;;7.70;76.10;;;;;;5136814;27;20047;-68
2021/04/08 11:05:02;;;;;;;5.50;3.20;;;8.00;71.70;;;;;;5136404;27;20069;-68
2021/04/08 11:07:37;;;;;;;7.05;3.30;;;8.20;73.50;;;;;;5136442;27;20044;-68
2021/04/08 11:10:08;;;;;;;6.13;4.05;;;8.30;72.90;;;;;;5136617;27;20031;-68
2021/04/08 11:12:34;;;;;;;5.38;3.63;;;8.30;71.40;;;;;;5135526;27;20031;-69
2021/04/08 11:15:01;;;;;;;7.60;3.30;;;8.20;69.80;;;;;;5135978;27;20486;-68
2021/04/08 11:17:28;;;;;;;8.13;3.53;;;8.00;70.00;;;;;;5136591;27;20035;-68
2021/04/08 11:19:56;;;;;;;4.57;3.55;;;7.80;71.10;;;;;;5136315;27;20170;-68
2021/04/08 11:22:26;;;;;;;8.10;3.60;;;7.70;69.70;;;;;;5136265;27;20482;-68
2021/04/08 11:24:54;;;;;;;7.07;3.67;;;7.60;70.00;;;;;;5134997;27;20114;-69
2021/04/08 11:27:30;;;;;;;6.47;4.18;;;7.60;70.30;;;;;;5136041;27;20042;-68
2021/04/08 11:29:57;;;;;;;8.32;4.40;;;7.60;67.60;;;;;;5136233;27;20479;-68
2021/04/08 11:32:23;;;;;;;4.68;3.72;;;7.60;65.60;;;;;;5136365;27;20544;-67
2021/04/08 11:34:54;;;;;;;4.80;4.28;;;7.60;64.90;;;;;;5135581;27;20031;-68
2021/04/08 11:37:33;;;;;;;5.65;4.38;;;7.70;62.20;;;;;;5134979;27;20080;-68
2021/04/08 11:40:00;;;;;;;8.07;4.20;;;7.80;61.00;;;;;;5135978;27;20459;-68
2021/04/08 11:42:35;;;;;;;7.07;4.22;;;7.80;62.40;;;;;;5135715;27;20035;-68
2021/04/08 11:45:25;;;;;;;6.72;4.80;;;7.90;64.30;;;;;;5135878;27;20036;-68
2021/04/08 11:47:58;;;;;;;8.52;4.78;;;8.00;66.10;;;;;;5135635;27;20035;-68
2021/04/08 11:50:34;;;;;;;7.90;4.85;;;8.00;67.30;;;;;;5135695;27;20039;-68
2021/04/08 11:53:11;;;;;;;12.10;5.32;;;7.90;65.30;;;;;;5136503;27;20035;-68
2021/04/08 11:55:41;;;;;;;8.10;4.70;;;7.90;65.40;;;;;;5135204;27;20057;-68
2021/04/08 11:58:10;;;;;;;6.03;5.25;;;8.10;65.00;;;;;;5136251;27;20122;-68
2021/04/08 12:00:37;;;;;;;12.80;5.10;;;8.20;65.70;;;;;;5135636;27;20035;-68
2021/04/08 12:03:20;;;;;;;7.05;4.20;;;8.20;64.60;;;;;;5135233;27;20035;-67
2021/04/08 12:05:46;;;;;;;7.03;5.75;;;8.30;63.70;;;;;;5134876;27;20036;-68
2021/04/08 12:08:13;;;;;;;7.97;5.53;;;8.30;65.40;;;;;;5135201;27;20046;-67
2021/04/08 12:10:40;;;;;;;9.30;6.05;;;8.30;64.50;;;;;;5135038;27;20050;-68
2021/04/08 12:13:10;;;;;;;9.25;5.50;;;8.30;64.40;;;;;;5135211;27;20523;-68
2021/04/08 12:15:47;;;;;;;7.55;6.25;;;8.30;64.20;;;;;;5135083;27;20394;-68
2021/04/08 12:18:17;;;;;;;10.65;6.78;;;8.40;63.60;;;;;;5135237;27;20039;-68
2021/04/08 12:20:48;;;;;;;10.55;6.38;;;8.40;65.10;;;;;;5134700;27;20043;-68
2021/04/08 12:23:16;;;;;;;10.68;5.80;;;8.60;65.20;;;;;;5134938;27;20043;-68
2021/04/08 12:25:46;;;;;;;11.93;7.43;;;8.80;64.70;;;;;;5134584;27;20031;-68
2021/04/08 12:28:13;;;;;;;10.60;7.05;;;8.80;64.40;;;;;;5135222;27;20039;-68
2021/04/08 12:30:56;;;;;;;8.88;6.70;;;8.80;64.50;;;;;;5134813;27;20052;-68
2021/04/08 12:33:26;;;;;;;8.40;6.05;;;8.80;63.70;;;;;;5134990;27;20035;-68
2021/04/08 12:35:52;;;;;;;7.47;6.63;;;8.80;63.80;;;;;;5134736;27;20039;-68
2021/04/08 12:38:18;;;;;;;9.90;6.88;;;8.80;64.80;;;;;;5127903;27;20044;-68
2021/04/08 12:40:44;;;;;;;11.25;6.93;;;8.90;66.30;;;;;;5114592;28;20468;-68
2021/04/08 12:43:11;;;;;;;12.88;7.18;;;8.80;64.40;;;;;;5114335;28;20465;-68
2021/04/08 12:45:36;;;;;;;10.25;7.70;;;8.70;64.80;;;;;;5112629;28;20483;-68
2021/04/08 12:48:02;;;;;;;11.27;8.02;;;8.70;63.70;;;;;;5114221;28;20039;-68
2021/04/08 12:50:28;;;;;;;11.07;7.90;;;8.90;65.30;;;;;;5113319;28;20475;-68
2021/04/08 12:52:54;;;;;;;10.88;7.57;;;9.00;67.20;;;;;;5114002;28;20032;-69
2021/04/08 12:55:23;;;;;;;12.65;8.80;;;9.00;64.50;;;;;;5113615;28;20040;-69
2021/04/08 12:57:48;;;;;;;12.70;8.90;;;8.90;63.40;;;;;;5113951;28;20394;-68
2021/04/08 13:00:14;;;;;;;14.40;8.82;;;8.90;64.70;;;;;;5114039;28;20069;-68
2021/04/08 13:02:40;;;;;;;12.75;9.13;;;8.80;64.20;;;;;;5113970;28;20035;-67
2021/04/08 13:05:06;;;;;;;12.45;8.60;;;8.80;64.20;;;;;;5113651;28;20070;-67
2021/04/08 13:07:32;;;;;;;10.50;8.93;;;9.10;64.60;;;;;;5113641;28;20122;-68